Time;durP1;ratioP1;P1;durP2;ratioP2;P2;SDS_P1;SDS_P2;PMS_P1;PMS_P2;Temp;Humidity;BMP_temperature;BMP_pressure;BME280_temperature;BME280_humidity;BME280_pressure;Samples;Min_cycle;Max_cycle;Signal;HPM_P1;HPM_P2
2022/10/04 00:00:24;;;;;;;20.35;9.38;;;;;;;;;;5030990;28;20186;-71
2022/10/04 00:02:51;;;;;;;16.35;9.00;;;;;;;;;;5028641;28;20181;-71
2022/10/04 00:05:20;;;;;;;17.67;9.55;;;;;;;;;;5039656;28;20185;-71
2022/10/04 00:07:50;;;;;;;18.48;8.52;;;;;;;;;;5044968;28;20177;-71
2022/10/04 00:10:31;;;;;;;17.95;9.40;;;;;;;;;;5040127;28;20553;-71
2022/10/04 00:13:02;;;;;;;19.27;10.55;;;;;;;;;;5043450;28;20319;-71
2022/10/04 00:15:32;;;;;;;25.63;10.32;;;;;;;;;;5041850;28;20607;-71
2022/10/04 00:18:09;;;;;;;26.50;10.98;;;;;;;;;;5030086;28;20325;-71
2022/10/04 00:20:48;;;;;;;21.52;10.45;;;;;;;;;;5032470;28;20224;-71
2022/10/04 00:23:22;;;;;;;18.38;9.65;;;;;;;;;;5045101;28;20181;-70
2022/10/04 00:25:52;;;;;;;18.40;10.23;;;;;;;;;;5030168;28;20257;-70
2022/10/04 00:28:20;;;;;;;17.20;9.90;;;;;;;;;;5033895;28;20261;-70
2022/10/04 00:31:06;;;;;;;16.33;10.05;;;;;;;;;;5035428;28;20916;-70
2022/10/04 00:33:41;;;;;;;17.10;10.43;;;;;;;;;;5031580;28;20201;-71
2022/10/04 00:36:24;;;;;;;17.50;9.88;;;;;;;;;;5037270;28;20630;-70
2022/10/04 00:39:07;;;;;;;18.13;10.95;;;;;;;;;;5038089;28;20627;-70
2022/10/04 00:41:47;;;;;;;19.73;11.35;;;;;;;;;;5033194;28;20189;-71
2022/10/04 00:44:40;;;;;;;21.77;11.55;;;;;;;;;;5040518;28;20188;-71
2022/10/04 00:47:30;;;;;;;21.10;11.48;;;;;;;;;;5032288;28;20190;-70
2022/10/04 00:50:04;;;;;;;23.10;12.88;;;;;;;;;;5038227;28;20387;-71
2022/10/04 00:52:33;;;;;;;19.58;11.40;;;;;;;;;;5035888;28;20602;-70
2022/10/04 00:55:04;;;;;;;17.75;11.23;;;;;;;;;;5037599;28;20642;-70
2022/10/04 00:57:36;;;;;;;21.70;11.70;;;;;;;;;;5028908;28;20177;-70
2022/10/04 01:00:10;;;;;;;22.52;11.20;;;;;;;;;;5033829;28;20186;-70
2022/10/04 01:02:43;;;;;;;18.25;11.60;;;;;;;;;;5038635;28;20357;-70
2022/10/04 01:05:15;;;;;;;16.98;11.57;;;;;;;;;;5032405;28;20189;-72
2022/10/04 01:07:45;;;;;;;24.35;11.55;;;;;;;;;;5032813;28;20186;-71
2022/10/04 01:10:17;;;;;;;19.83;11.30;;;;;;;;;;5043463;28;20346;-70
2022/10/04 01:12:44;;;;;;;21.13;12.07;;;;;;;;;;5035806;28;20201;-71
2022/10/04 01:15:41;;;;;;;24.65;12.38;;;;;;;;;;5033442;28;20228;-71
2022/10/04 01:18:13;;;;;;;16.30;12.43;;;;;;;;;;5033246;28;20174;-70
2022/10/04 01:20:47;;;;;;;14.95;10.25;;;;;;;;;;5034358;28;20295;-71
2022/10/04 01:23:35;;;;;;;20.33;13.15;;;;;;;;;;5030446;28;20264;-70
2022/10/04 01:26:03;;;;;;;23.35;12.02;;;;;;;;;;5036921;28;20763;-70
2022/10/04 01:28:37;;;;;;;22.00;12.30;;;;;;;;;;5042949;28;20184;-71
2022/10/04 01:31:02;;;;;;;21.63;11.23;;;;;;;;;;5035973;28;20712;-70
2022/10/04 01:33:28;;;;;;;21.25;11.00;;;;;;;;;;5031439;28;20286;-70
2022/10/04 01:35:54;;;;;;;21.48;11.23;;;;;;;;;;5030594;28;20210;-70
2022/10/04 01:38:19;;;;;;;18.98;10.73;;;;;;;;;;5032591;28;20240;-70
2022/10/04 01:40:52;;;;;;;17.05;10.57;;;;;;;;;;5029214;28;20184;-71
2022/10/04 01:43:26;;;;;;;21.00;11.15;;;;;;;;;;5029075;28;20710;-71
2022/10/04 01:45:57;;;;;;;20.88;11.18;;;;;;;;;;5028451;28;20179;-71
2022/10/04 01:48:28;;;;;;;16.63;11.82;;;;;;;;;;5026767;28;20204;-71
2022/10/04 01:51:00;;;;;;;18.63;11.55;;;;;;;;;;5030143;28;20600;-71
2022/10/04 01:53:33;;;;;;;21.90;11.75;;;;;;;;;;5037523;28;20571;-71
2022/10/04 01:56:16;;;;;;;17.63;11.73;;;;;;;;;;5028700;28;20246;-71
2022/10/04 01:58:45;;;;;;;17.02;11.73;;;;;;;;;;5029921;28;20409;-71
2022/10/04 02:01:20;;;;;;;21.08;12.50;;;;;;;;;;5042827;28;20812;-71
2022/10/04 02:03:59;;;;;;;21.67;12.43;;;;;;;;;;5034893;28;20192;-70
2022/10/04 02:06:25;;;;;;;21.13;13.57;;;;;;;;;;5032795;28;20220;-70
2022/10/04 02:08:56;;;;;;;21.55;14.23;;;;;;;;;;5048452;28;20213;-71
2022/10/04 02:11:23;;;;;;;24.67;14.13;;;;;;;;;;5031495;28;20252;-70
2022/10/04 02:13:52;;;;;;;24.58;14.73;;;;;;;;;;5040014;28;20252;-70
2022/10/04 02:16:18;;;;;;;27.50;14.30;;;;;;;;;;5035223;28;20313;-70
2022/10/04 02:18:44;;;;;;;21.73;13.80;;;;;;;;;;5039448;28;20193;-70
2022/10/04 02:21:11;;;;;;;23.73;14.95;;;;;;;;;;5034337;28;20269;-70
2022/10/04 02:23:39;;;;;;;22.23;15.00;;;;;;;;;;5028113;28;20185;-70
2022/10/04 02:26:05;;;;;;;25.33;14.93;;;;;;;;;;5034738;28;20263;-70
2022/10/04 02:28:32;;;;;;;20.85;14.57;;;;;;;;;;5038592;28;20269;-70
2022/10/04 02:33:47;;;;;;;26.33;15.38;;;;;;;;;;5040758;28;20236;-70
2022/10/04 02:36:13;;;;;;;29.20;15.32;;;;;;;;;;5037813;28;20704;-70
2022/10/04 02:38:59;;;;;;;28.08;15.73;;;;;;;;;;5045489;28;20253;-70
2022/10/04 02:41:51;;;;;;;26.23;15.48;;;;;;;;;;5033710;28;20220;-71
2022/10/04 02:44:39;;;;;;;30.33;15.05;;;;;;;;;;5042168;28;20177;-71
2022/10/04 02:47:12;;;;;;;20.27;14.30;;;;;;;;;;5044153;28;20200;-71
2022/10/04 02:49:45;;;;;;;22.88;13.25;;;;;;;;;;5040925;28;20182;-71
2022/10/04 02:52:26;;;;;;;20.58;13.70;;;;;;;;;;5039973;28;20654;-71
2022/10/04 02:55:13;;;;;;;19.55;14.45;;;;;;;;;;5040367;28;20189;-71
2022/10/04 02:57:41;;;;;;;23.75;15.05;;;;;;;;;;5039440;28;20181;-71
2022/10/04 03:00:19;;;;;;;23.02;15.35;;;;;;;;;;5048694;28;20258;-71
2022/10/04 03:03:16;;;;;;;22.45;15.73;;;;;;;;;;5036250;28;20653;-71
2022/10/04 03:05:44;;;;;;;25.20;16.08;;;;;;;;;;5033411;28;20186;-71
2022/10/04 03:08:10;;;;;;;26.60;16.90;;;;;;;;;;5038433;28;20189;-71
2022/10/04 03:10:36;;;;;;;30.88;17.02;;;;;;;;;;5038813;28;20184;-71
2022/10/04 03:13:03;;;;;;;31.77;17.48;;;;;;;;;;5041952;28;20642;-71
2022/10/04 03:15:28;;;;;;;29.10;16.45;;;;;;;;;;5030800;28;20202;-71
2022/10/04 03:17:54;;;;;;;25.50;17.60;;;;;;;;;;5037029;28;20243;-71
2022/10/04 03:20:20;;;;;;;25.77;16.70;;;;;;;;;;5037111;28;20197;-71
2022/10/04 03:22:49;;;;;;;32.58;17.23;;;;;;;;;;5041338;28;20189;-71
2022/10/04 03:25:20;;;;;;;30.95;17.13;;;;;;;;;;5038304;28;20185;-71
2022/10/04 03:27:46;;;;;;;27.63;16.35;;;;;;;;;;5029837;28;20630;-70
2022/10/04 03:30:19;;;;;;;26.35;17.90;;;;;;;;;;5034988;28;20597;-71
2022/10/04 03:32:46;;;;;;;33.83;18.33;;;;;;;;;;5041393;28;20205;-72
2022/10/04 03:35:28;;;;;;;23.95;17.38;;;;;;;;;;5032907;28;20186;-71
2022/10/04 03:37:56;;;;;;;32.90;18.55;;;;;;;;;;5034745;28;20182;-71
2022/10/04 03:40:26;;;;;;;35.47;17.85;;;;;;;;;;5032061;28;20201;-71
2022/10/04 03:42:52;;;;;;;30.92;18.80;;;;;;;;;;5037429;28;20201;-71
2022/10/04 03:45:19;;;;;;;46.53;20.95;;;;;;;;;;5044959;28;20182;-70
2022/10/04 03:47:48;;;;;;;29.75;20.10;;;;;;;;;;5036172;28;20561;-71
2022/10/04 03:50:18;;;;;;;31.40;19.77;;;;;;;;;;5030940;28;20257;-71
2022/10/04 03:52:53;;;;;;;28.88;19.52;;;;;;;;;;5035496;28;20622;-70
2022/10/04 03:55:19;;;;;;;31.33;19.75;;;;;;;;;;5042782;28;20634;-71
2022/10/04 03:57:45;;;;;;;33.53;18.58;;;;;;;;;;5037335;28;20182;-70
2022/10/04 04:00:15;;;;;;;31.67;18.58;;;;;;;;;;5039661;28;20193;-71
2022/10/04 04:02:52;;;;;;;28.85;18.75;;;;;;;;;;5040926;28;20675;-71
2022/10/04 04:05:25;;;;;;;20.45;14.48;;;;;;;;;;5050081;28;20454;-71
2022/10/04 04:08:13;;;;;;;32.10;18.63;;;;;;;;;;5041004;28;20653;-71
2022/10/04 04:10:49;;;;;;;30.20;17.95;;;;;;;;;;5043674;28;20208;-71
2022/10/04 04:13:30;;;;;;;30.35;19.75;;;;;;;;;;5034853;28;20182;-71
2022/10/04 04:15:58;;;;;;;28.92;18.98;;;;;;;;;;5029263;28;21185;-71
2022/10/04 04:18:29;;;;;;;28.67;19.58;;;;;;;;;;5045554;28;20240;-71
2022/10/04 04:20:57;;;;;;;27.38;19.60;;;;;;;;;;5030365;28;20649;-71
2022/10/04 04:23:31;;;;;;;35.45;20.23;;;;;;;;;;5031615;28;20202;-72
2022/10/04 04:26:10;;;;;;;31.92;19.00;;;;;;;;;;5033597;28;20629;-71
2022/10/04 04:28:53;;;;;;;30.00;19.23;;;;;;;;;;5038368;28;20529;-71
2022/10/04 04:31:36;;;;;;;39.65;19.95;;;;;;;;;;5035126;28;20230;-71
2022/10/04 04:34:05;;;;;;;32.38;19.35;;;;;;;;;;5029403;28;20654;-71
2022/10/04 04:36:40;;;;;;;31.33;20.40;;;;;;;;;;5028387;28;20198;-71
2022/10/04 04:42:28;;;;;;;35.40;19.73;;;;;;;;;;5021201;28;20277;-72
2022/10/04 04:44:59;;;;;;;30.38;19.25;;;;;;;;;;5036853;28;20659;-71
2022/10/04 04:47:37;;;;;;;32.25;19.35;;;;;;;;;;5030951;28;20265;-71
2022/10/04 04:50:14;;;;;;;23.67;17.23;;;;;;;;;;5040587;28;20649;-71
2022/10/04 04:52:43;;;;;;;27.48;17.50;;;;;;;;;;5028850;28;20231;-71
2022/10/04 04:55:17;;;;;;;27.15;17.98;;;;;;;;;;5030515;28;20247;-71
2022/10/04 04:57:43;;;;;;;24.77;18.27;;;;;;;;;;5046306;28;20486;-71
2022/10/04 05:00:19;;;;;;;28.63;19.50;;;;;;;;;;5048746;28;20196;-71
2022/10/04 05:03:02;;;;;;;27.15;17.77;;;;;;;;;;5036040;28;20666;-72
2022/10/04 05:05:31;;;;;;;27.15;17.33;;;;;;;;;;5032219;28;20274;-71
2022/10/04 05:08:15;;;;;;;32.30;18.60;;;;;;;;;;5029999;28;20179;-71
2022/10/04 05:11:04;;;;;;;23.75;17.65;;;;;;;;;;5031656;28;20193;-71
2022/10/04 05:13:51;;;;;;;27.80;17.67;;;;;;;;;;5031774;28;20240;-72
2022/10/04 05:16:31;;;;;;;30.50;18.42;;;;;;;;;;5041879;28;20206;-71
2022/10/04 05:19:07;;;;;;;29.67;17.67;;;;;;;;;;5031771;28;20193;-71
2022/10/04 05:21:34;;;;;;;27.67;18.27;;;;;;;;;;5037162;28;20581;-71
2022/10/04 05:24:30;;;;;;;30.08;18.45;;;;;;;;;;5035399;28;20276;-71
2022/10/04 05:27:06;;;;;;;29.75;18.13;;;;;;;;;;5035971;28;20198;-71
2022/10/04 05:29:38;;;;;;;27.63;17.20;;;;;;;;;;5036969;28;20605;-71
2022/10/04 05:32:12;;;;;;;27.23;17.55;;;;;;;;;;5031338;28;20217;-71
2022/10/04 05:34:40;;;;;;;26.52;17.17;;;;;;;;;;5028220;28;20182;-72
2022/10/04 05:37:26;;;;;;;25.13;17.23;;;;;;;;;;5030717;28;20769;-71
2022/10/04 05:40:12;;;;;;;28.83;17.85;;;;;;;;;;5026386;28;20603;-71
2022/10/04 05:42:44;;;;;;;28.65;17.95;;;;;;;;;;5028565;28;20347;-71
2022/10/04 05:45:27;;;;;;;26.92;17.08;;;;;;;;;;5039472;28;20195;-71
2022/10/04 05:47:54;;;;;;;24.80;16.10;;;;;;;;;;5040011;28;20236;-71
2022/10/04 05:50:39;;;;;;;22.48;17.10;;;;;;;;;;5031901;28;20190;-71
2022/10/04 05:53:34;;;;;;;28.08;16.48;;;;;;;;;;5037095;28;20189;-72
2022/10/04 05:56:18;;;;;;;24.75;15.98;;;;;;;;;;5030374;28;20210;-71
2022/10/04 05:58:49;;;;;;;29.43;16.87;;;;;;;;;;5029438;28;20855;-71
2022/10/04 06:01:26;;;;;;;31.50;17.08;;;;;;;;;;5032602;28;20182;-71
2022/10/04 06:04:19;;;;;;;34.50;17.67;;;;;;;;;;5033312;28;20289;-71
2022/10/04 06:07:02;;;;;;;26.73;16.92;;;;;;;;;;5037340;28;20193;-71
2022/10/04 06:09:47;;;;;;;22.17;16.13;;;;;;;;;;5036353;28;20213;-71
2022/10/04 06:12:29;;;;;;;25.48;16.30;;;;;;;;;;5038220;28;20546;-71
2022/10/04 06:15:31;;;;;;;23.27;16.10;;;;;;;;;;5041208;28;20189;-71
2022/10/04 06:18:21;;;;;;;30.35;16.50;;;;;;;;;;5032792;28;20221;-72
2022/10/04 06:21:19;;;;;;;29.20;17.88;;;;;;;;;;5031090;28;20186;-71
2022/10/04 06:23:57;;;;;;;32.63;17.55;;;;;;;;;;5031876;28;20178;-71
2022/10/04 06:26:29;;;;;;;30.52;18.10;;;;;;;;;;5030539;28;20180;-71
2022/10/04 06:29:15;;;;;;;25.88;16.73;;;;;;;;;;5035629;28;20193;-71
2022/10/04 06:31:59;;;;;;;35.33;17.77;;;;;;;;;;5026941;28;20221;-71
2022/10/04 06:34:53;;;;;;;30.65;18.77;;;;;;;;;;5033865;28;20182;-71
2022/10/04 06:37:44;;;;;;;28.00;17.25;;;;;;;;;;5032866;28;20605;-70
2022/10/04 06:40:27;;;;;;;33.22;17.20;;;;;;;;;;5027007;28;20190;-70
2022/10/04 06:43:17;;;;;;;30.00;16.98;;;;;;;;;;5031535;28;20186;-70
2022/10/04 06:45:57;;;;;;;25.05;15.75;;;;;;;;;;5038031;28;20277;-70
2022/10/04 06:49:00;;;;;;;24.20;15.55;;;;;;;;;;5028074;28;20198;-71
2022/10/04 06:51:28;;;;;;;28.75;15.93;;;;;;;;;;5031233;28;20236;-70
2022/10/04 06:54:26;;;;;;;22.52;14.27;;;;;;;;;;5030120;28;20579;-71
2022/10/04 06:57:18;;;;;;;22.42;14.63;;;;;;;;;;5026618;28;20252;-70
2022/10/04 07:00:11;;;;;;;24.92;14.95;;;;;;;;;;5025660;28;20370;-70
2022/10/04 07:02:48;;;;;;;26.10;15.35;;;;;;;;;;5031879;28;20262;-71
2022/10/04 07:05:30;;;;;;;22.95;14.95;;;;;;;;;;5032280;28;20626;-71
2022/10/04 07:08:05;;;;;;;25.35;14.48;;;;;;;;;;5035030;28;20173;-71
2022/10/04 07:10:53;;;;;;;25.98;14.48;;;;;;;;;;5026498;28;20772;-70
2022/10/04 07:13:38;;;;;;;28.45;13.95;;;;;;;;;;5036288;28;20181;-71
2022/10/04 07:16:31;;;;;;;19.70;13.65;;;;;;;;;;5038625;28;20206;-70
2022/10/04 07:19:16;;;;;;;19.63;13.13;;;;;;;;;;5032336;28;20182;-70
2022/10/04 07:21:55;;;;;;;20.88;13.10;;;;;;;;;;5028879;28;20772;-71
2022/10/04 07:24:40;;;;;;;23.52;12.73;;;;;;;;;;5030873;28;20228;-70
2022/10/04 07:27:12;;;;;;;24.00;12.90;;;;;;;;;;5036007;28;20182;-70
2022/10/04 07:29:40;;;;;;;22.33;12.88;;;;;;;;;;5031257;28;20716;-70
2022/10/04 07:32:26;;;;;;;23.10;13.25;;;;;;;;;;5029764;28;20212;-70
2022/10/04 07:35:08;;;;;;;18.52;12.18;;;;;;;;;;5031415;28;20652;-70
2022/10/04 07:37:50;;;;;;;24.10;12.55;;;;;;;;;;5032511;28;20276;-70
2022/10/04 07:40:39;;;;;;;27.90;13.65;;;;;;;;;;5033703;28;20182;-70
2022/10/04 07:43:09;;;;;;;29.52;13.13;;;;;;;;;;5035647;28;20190;-70
2022/10/04 07:45:38;;;;;;;19.33;12.15;;;;;;;;;;5039243;28;20415;-69
2022/10/04 07:48:18;;;;;;;21.58;13.07;;;;;;;;;;5037429;28;20192;-69
2022/10/04 07:50:58;;;;;;;17.50;12.00;;;;;;;;;;5035381;28;20208;-69
2022/10/04 07:53:45;;;;;;;18.85;11.38;;;;;;;;;;5039775;28;20181;-69
2022/10/04 07:56:16;;;;;;;20.45;12.02;;;;;;;;;;5030907;28;20203;-69
2022/10/04 07:59:17;;;;;;;18.98;11.55;;;;;;;;;;5043311;28;20551;-68
2022/10/04 08:01:53;;;;;;;21.13;11.10;;;;;;;;;;5011293;28;20547;-70
2022/10/04 08:04:40;;;;;;;17.95;10.85;;;;;;;;;;5030368;28;20201;-68
2022/10/04 08:07:26;;;;;;;18.60;10.82;;;;;;;;;;5049498;28;20169;-68
2022/10/04 08:10:07;;;;;;;22.40;11.57;;;;;;;;;;5035592;28;20188;-69
2022/10/04 08:13:02;;;;;;;14.10;9.90;;;;;;;;;;5030112;28;20178;-69
2022/10/04 08:15:37;;;;;;;12.60;9.13;;;;;;;;;;5034981;28;20228;-68
2022/10/04 08:18:28;;;;;;;18.52;9.48;;;;;;;;;;5038850;28;20177;-69
2022/10/04 08:21:04;;;;;;;17.48;9.65;;;;;;;;;;5034274;28;20273;-68
2022/10/04 08:23:46;;;;;;;19.27;9.00;;;;;;;;;;5028571;28;20185;-68
2022/10/04 08:26:35;;;;;;;19.33;9.38;;;;;;;;;;5035501;28;20865;-68
2022/10/04 08:32:08;;;;;;;12.43;7.95;;;;;;;;;;5033021;28;20268;-69
2022/10/04 08:34:54;;;;;;;13.63;8.23;;;;;;;;;;5032616;28;20465;-69
2022/10/04 08:37:47;;;;;;;17.42;8.02;;;;;;;;;;5044010;28;20209;-68
2022/10/04 08:40:32;;;;;;;14.93;8.07;;;;;;;;;;5033850;28;20664;-69
2022/10/04 08:43:43;;;;;;;17.60;7.68;;;;;;;;;;5033975;28;20178;-68
2022/10/04 08:46:39;;;;;;;15.20;7.80;;;;;;;;;;5032609;28;20235;-68
2022/10/04 08:49:42;;;;;;;13.90;6.93;;;;;;;;;;5034910;28;20174;-68
2022/10/04 08:52:28;;;;;;;13.60;7.00;;;;;;;;;;5032145;28;20268;-68
2022/10/04 08:55:33;;;;;;;11.18;7.05;;;;;;;;;;5032194;28;20599;-68
2022/10/04 08:58:15;;;;;;;14.65;6.53;;;;;;;;;;5031949;28;20197;-69
2022/10/04 09:01:01;;;;;;;9.70;6.15;;;;;;;;;;5028493;28;20186;-68
2022/10/04 09:04:04;;;;;;;9.88;6.55;;;;;;;;;;5029078;28;20178;-68
2022/10/04 09:06:32;;;;;;;16.50;7.32;;;;;;;;;;5032067;28;20184;-67
2022/10/04 09:09:25;;;;;;;12.43;6.90;;;;;;;;;;5035330;28;20174;-68
2022/10/04 09:12:27;;;;;;;13.60;7.25;;;;;;;;;;5034147;28;20668;-68
2022/10/04 09:15:01;;;;;;;13.05;7.28;;;;;;;;;;5036613;28;20698;-68
2022/10/04 09:17:52;;;;;;;9.75;6.30;;;;;;;;;;5033781;28;20198;-67
2022/10/04 09:20:38;;;;;;;13.95;7.35;;;;;;;;;;5031562;28;20190;-68
2022/10/04 09:23:27;;;;;;;17.55;7.57;;;;;;;;;;5032269;28;20271;-68
2022/10/04 09:26:18;;;;;;;12.45;7.22;;;;;;;;;;5025102;28;20197;-68
2022/10/04 09:29:25;;;;;;;13.95;7.03;;;;;;;;;;5037882;28;20678;-67
2022/10/04 09:32:18;;;;;;;15.18;7.30;;;;;;;;;;5035870;28;20205;-68
2022/10/04 09:35:24;;;;;;;16.48;7.35;;;;;;;;;;5033091;28;20576;-68
2022/10/04 09:38:09;;;;;;;12.18;6.80;;;;;;;;;;5036886;28;20263;-67
2022/10/04 09:40:43;;;;;;;14.70;6.97;;;;;;;;;;5030481;28;20178;-67
2022/10/04 09:43:27;;;;;;;13.93;6.75;;;;;;;;;;5030639;28;20174;-67
2022/10/04 09:46:16;;;;;;;13.38;6.35;;;;;;;;;;5041524;28;20247;-67
2022/10/04 09:49:12;;;;;;;11.80;6.07;;;;;;;;;;5042917;28;20173;-67
2022/10/04 09:52:14;;;;;;;11.18;6.80;;;;;;;;;;5043389;28;20194;-68
2022/10/04 09:55:09;;;;;;;11.75;6.15;;;;;;;;;;5029104;28;20189;-67
2022/10/04 09:57:56;;;;;;;11.13;5.85;;;;;;;;;;5030726;28;20213;-68
2022/10/04 10:00:24;;;;;;;11.07;6.25;;;;;;;;;;5026489;28;20207;-68
2022/10/04 10:03:18;;;;;;;12.85;5.70;;;;;;;;;;5036069;28;20617;-67
2022/10/04 10:05:51;;;;;;;9.10;5.30;;;;;;;;;;5032378;28;20503;-66
2022/10/04 10:08:34;;;;;;;12.25;5.68;;;;;;;;;;5032654;28;20174;-68
2022/10/04 10:14:37;;;;;;;11.30;5.55;;;;;;;;;;5028551;28;20209;-67
2022/10/04 10:17:19;;;;;;;9.60;5.45;;;;;;;;;;5031919;28;20206;-67
2022/10/04 10:20:15;;;;;;;11.95;5.47;;;;;;;;;;5032198;28;20634;-67
2022/10/04 10:22:57;;;;;;;13.40;6.32;;;;;;;;;;5031487;28;20278;-67
2022/10/04 10:25:58;;;;;;;14.48;5.43;;;;;;;;;;5035582;28;20196;-67
2022/10/04 10:28:48;;;;;;;13.77;5.88;;;;;;;;;;5029492;28;20689;-67
2022/10/04 10:31:43;;;;;;;9.90;5.18;;;;;;;;;;5029223;28;20259;-67
2022/10/04 10:34:32;;;;;;;12.07;5.10;;;;;;;;;;5030882;28;20189;-68
2022/10/04 10:37:12;;;;;;;9.65;4.78;;;;;;;;;;5029808;28;20224;-67
2022/10/04 10:40:19;;;;;;;8.07;5.10;;;;;;;;;;5043426;28;20661;-72
2022/10/04 10:43:08;;;;;;;12.70;5.32;;;;;;;;;;5017673;28;20205;-70
2022/10/04 10:45:44;;;;;;;11.52;4.93;;;;;;;;;;5041828;28;20265;-68
2022/10/04 10:48:33;;;;;;;11.95;4.40;;;;;;;;;;5044573;28;20208;-68
2022/10/04 10:51:34;;;;;;;9.52;4.57;;;;;;;;;;5024541;28;20198;-69
2022/10/04 10:54:37;;;;;;;8.30;4.18;;;;;;;;;;5035984;28;20204;-69
2022/10/04 10:57:41;;;;;;;9.57;3.90;;;;;;;;;;5037081;28;20202;-67
2022/10/04 11:00:26;;;;;;;11.93;4.50;;;;;;;;;;5032917;28;20201;-67
2022/10/04 11:03:32;;;;;;;12.57;4.80;;;;;;;;;;5031178;28;20634;-67
2022/10/04 11:06:13;;;;;;;9.43;4.50;;;;;;;;;;5037500;28;20526;-67
2022/10/04 11:09:11;;;;;;;12.23;4.65;;;;;;;;;;5033004;28;20393;-67
2022/10/04 11:11:55;;;;;;;13.30;5.03;;;;;;;;;;5035311;28;20197;-66
2022/10/04 11:15:00;;;;;;;13.65;4.38;;;;;;;;;;5044912;28;20513;-67
2022/10/04 11:17:39;;;;;;;9.77;4.38;;;;;;;;;;5041521;28;20209;-67
2022/10/04 11:20:23;;;;;;;9.23;4.75;;;;;;;;;;5050131;28;20177;-67
2022/10/04 11:23:26;;;;;;;9.63;5.43;;;;;;;;;;5037902;28;20220;-67
2022/10/04 11:26:25;;;;;;;11.48;5.63;;;;;;;;;;5049154;28;20252;-67
2022/10/04 11:29:12;;;;;;;11.13;5.32;;;;;;;;;;5039431;28;20290;-67
2022/10/04 11:31:59;;;;;;;11.57;5.50;;;;;;;;;;5035507;28;20551;-67
2022/10/04 11:34:49;;;;;;;12.20;5.82;;;;;;;;;;5034301;28;20174;-68
2022/10/04 11:37:28;;;;;;;12.73;5.35;;;;;;;;;;5039134;28;20556;-67
2022/10/04 11:40:22;;;;;;;9.55;5.60;;;;;;;;;;5035235;28;20549;-67
2022/10/04 11:43:11;;;;;;;11.95;5.70;;;;;;;;;;5045950;28;20625;-68
2022/10/04 11:46:03;;;;;;;10.23;6.20;;;;;;;;;;5043796;28;20509;-70
2022/10/04 11:48:47;;;;;;;11.40;6.40;;;;;;;;;;5045309;28;20812;-67
2022/10/04 11:51:54;;;;;;;11.55;5.60;;;;;;;;;;5039590;28;20676;-67
2022/10/04 11:54:41;;;;;;;13.75;6.45;;;;;;;;;;5043914;28;20531;-67
2022/10/04 11:58:06;;;;;;;10.88;5.95;;;;;;;;;;5047608;28;20300;-67
2022/10/04 12:00:54;;;;;;;10.25;6.03;;;;;;;;;;5026932;28;20194;-67
2022/10/04 12:03:53;;;;;;;10.70;5.60;;;;;;;;;;5035871;28;20538;-67
2022/10/04 12:06:32;;;;;;;13.98;6.03;;;;;;;;;;5032343;28;20186;-67
2022/10/04 12:09:12;;;;;;;11.88;5.55;;;;;;;;;;5038789;28;20181;-67
2022/10/04 12:14:56;;;;;;;16.08;6.32;;;;;;;;;;5032245;28;20248;-67
2022/10/04 12:17:30;;;;;;;11.38;6.30;;;;;;;;;;5033043;28;20582;-67
2022/10/04 12:20:06;;;;;;;12.13;5.78;;;;;;;;;;5037523;28;20243;-69
2022/10/04 12:22:59;;;;;;;11.70;5.72;;;;;;;;;;5035818;28;20225;-68
2022/10/04 12:25:48;;;;;;;12.23;6.20;;;;;;;;;;5031733;28;20564;-67
2022/10/04 12:28:46;;;;;;;11.43;5.85;;;;;;;;;;5032397;28;20202;-67
2022/10/04 12:31:18;;;;;;;9.70;5.57;;;;;;;;;;5031981;28;20577;-68
2022/10/04 12:33:57;;;;;;;11.90;6.18;;;;;;;;;;5039805;28;20602;-67
2022/10/04 12:36:29;;;;;;;10.95;5.38;;;;;;;;;;5034745;28;20215;-68
2022/10/04 12:39:05;;;;;;;12.55;5.90;;;;;;;;;;5039023;28;20191;-67
2022/10/04 12:42:01;;;;;;;9.68;5.57;;;;;;;;;;5034354;28;20190;-67
2022/10/04 12:44:45;;;;;;;11.15;5.85;;;;;;;;;;5039732;28;20268;-69
2022/10/04 12:47:53;;;;;;;12.02;6.50;;;;;;;;;;5039122;28;20231;-69
2022/10/04 12:50:38;;;;;;;11.98;5.78;;;;;;;;;;5035283;28;20224;-69
2022/10/04 12:53:33;;;;;;;10.48;5.53;;;;;;;;;;5036137;28;20257;-68
2022/10/04 12:56:04;;;;;;;13.07;6.50;;;;;;;;;;5034004;28;20237;-69
2022/10/04 12:58:44;;;;;;;13.27;6.05;;;;;;;;;;5042759;28;20170;-68
2022/10/04 13:01:50;;;;;;;13.27;6.30;;;;;;;;;;5038002;28;20185;-67
2022/10/04 13:04:46;;;;;;;10.20;5.65;;;;;;;;;;5027645;28;20595;-69
2022/10/04 13:07:50;;;;;;;12.43;6.30;;;;;;;;;;5033278;28;20189;-68
2022/10/04 13:10:43;;;;;;;13.20;6.18;;;;;;;;;;5026530;28;20673;-67
2022/10/04 13:13:19;;;;;;;12.52;6.22;;;;;;;;;;5028433;28;20182;-67
2022/10/04 13:16:13;;;;;;;13.18;6.43;;;;;;;;;;5030809;28;20347;-67
2022/10/04 13:18:46;;;;;;;9.25;6.22;;;;;;;;;;5030115;28;20306;-68
2022/10/04 13:21:37;;;;;;;15.25;6.20;;;;;;;;;;5029986;28;20186;-67
2022/10/04 13:24:15;;;;;;;10.48;5.80;;;;;;;;;;5029432;28;20182;-67
2022/10/04 13:27:00;;;;;;;10.38;5.63;;;;;;;;;;5027655;28;20565;-69
2022/10/04 13:29:44;;;;;;;13.70;6.45;;;;;;;;;;5029432;28;20350;-68
2022/10/04 13:32:27;;;;;;;10.05;6.30;;;;;;;;;;5029506;28;20194;-68
2022/10/04 13:35:11;;;;;;;10.73;5.95;;;;;;;;;;5029103;28;20615;-69
2022/10/04 13:37:48;;;;;;;11.50;6.22;;;;;;;;;;5030041;28;20534;-72
2022/10/04 13:40:31;;;;;;;12.07;6.45;;;;;;;;;;5028125;28;20197;-68
2022/10/04 13:43:02;;;;;;;15.73;6.45;;;;;;;;;;5031523;28;20596;-68
2022/10/04 13:45:50;;;;;;;11.80;6.00;;;;;;;;;;5029936;28;20570;-68
2022/10/04 13:48:45;;;;;;;14.50;6.78;;;;;;;;;;5029516;28;20286;-67
2022/10/04 13:51:37;;;;;;;14.70;6.50;;;;;;;;;;5029370;28;20185;-68
2022/10/04 13:57:28;;;;;;;11.82;5.80;;;;;;;;;;5034091;28;20219;-68
2022/10/04 14:00:00;;;;;;;9.20;5.10;;;;;;;;;;5027865;28;20574;-68
2022/10/04 14:02:26;;;;;;;11.40;5.32;;;;;;;;;;5030392;28;20194;-68
2022/10/04 14:05:10;;;;;;;11.25;5.35;;;;;;;;;;5028197;28;20184;-73
2022/10/04 14:07:51;;;;;;;10.60;5.38;;;;;;;;;;5030164;28;20185;-67
2022/10/04 14:10:28;;;;;;;11.27;5.38;;;;;;;;;;5033401;28;20484;-72
2022/10/04 14:13:50;;;;;;;13.23;5.10;;;;;;;;;;5032937;28;20664;-71
2022/10/04 14:16:56;;;;;;;9.85;5.30;;;;;;;;;;5036686;28;20244;-73
2022/10/04 14:19:42;;;;;;;9.25;4.78;;;;;;;;;;5017991;28;20244;-68
2022/10/04 14:22:11;;;;;;;10.57;5.22;;;;;;;;;;5030100;28;20209;-70
2022/10/04 14:24:55;;;;;;;11.70;5.47;;;;;;;;;;5035102;28;20638;-69
2022/10/04 14:27:42;;;;;;;9.32;5.40;;;;;;;;;;5043687;28;20226;-69
2022/10/04 14:30:46;;;;;;;8.80;4.75;;;;;;;;;;5031781;28;20236;-68
2022/10/04 14:33:53;;;;;;;11.48;5.55;;;;;;;;;;5035290;28;20628;-69
2022/10/04 14:36:40;;;;;;;11.77;5.40;;;;;;;;;;5031761;28;20226;-68
2022/10/04 14:39:27;;;;;;;10.77;4.95;;;;;;;;;;5033897;28;20204;-68
2022/10/04 14:42:11;;;;;;;11.77;5.07;;;;;;;;;;5038935;28;20264;-68
2022/10/04 14:45:04;;;;;;;11.23;5.40;;;;;;;;;;5033035;28;20665;-68
2022/10/04 14:47:35;;;;;;;7.55;5.47;;;;;;;;;;5035693;28;20296;-68
2022/10/04 14:50:18;;;;;;;9.73;4.95;;;;;;;;;;5033236;28;20273;-69
2022/10/04 14:53:02;;;;;;;8.45;4.80;;;;;;;;;;5034133;28;20193;-69
2022/10/04 14:55:37;;;;;;;11.55;5.53;;;;;;;;;;5032558;28;20186;-69
2022/10/04 14:58:41;;;;;;;7.82;5.00;;;;;;;;;;5035199;28;20534;-68
2022/10/04 15:01:22;;;;;;;9.40;4.72;;;;;;;;;;5033535;28;20193;-68
2022/10/04 15:04:10;;;;;;;9.65;4.47;;;;;;;;;;5034002;28;20705;-69
2022/10/04 15:06:49;;;;;;;11.48;5.50;;;;;;;;;;5031169;28;20221;-68
2022/10/04 15:09:44;;;;;;;8.30;4.90;;;;;;;;;;5033685;28;20174;-68
2022/10/04 15:12:43;;;;;;;7.07;4.78;;;;;;;;;;5043055;28;20173;-68
2022/10/04 15:15:12;;;;;;;8.98;5.15;;;;;;;;;;5023378;28;20667;-68
2022/10/04 15:17:46;;;;;;;13.10;5.00;;;;;;;;;;5034043;28;20685;-69
2022/10/04 15:20:21;;;;;;;7.47;4.57;;;;;;;;;;5035080;28;20584;-69
2022/10/04 15:22:54;;;;;;;11.07;4.72;;;;;;;;;;5039098;28;20239;-71
2022/10/04 15:25:40;;;;;;;9.82;4.80;;;;;;;;;;5031454;28;20243;-68
2022/10/04 15:28:32;;;;;;;7.93;4.50;;;;;;;;;;5032790;28;20194;-68
2022/10/04 15:31:08;;;;;;;14.48;4.65;;;;;;;;;;5041019;28;20593;-69
2022/10/04 15:33:41;;;;;;;8.98;4.95;;;;;;;;;;5029555;28;20177;-68
2022/10/04 15:36:30;;;;;;;12.60;5.63;;;;;;;;;;5032381;28;20289;-68
2022/10/04 15:39:22;;;;;;;12.40;4.78;;;;;;;;;;5030566;28;20216;-69
2022/10/04 15:42:13;;;;;;;9.20;4.50;;;;;;;;;;5020906;28;20225;-68
2022/10/04 15:45:14;;;;;;;9.05;4.57;;;;;;;;;;5042031;28;20228;-69
2022/10/04 15:47:58;;;;;;;8.52;4.32;;;;;;;;;;5030791;28;20672;-69
2022/10/04 15:50:33;;;;;;;8.98;4.40;;;;;;;;;;5038661;28;20178;-69
2022/10/04 15:53:32;;;;;;;11.50;4.55;;;;;;;;;;5029351;28;20299;-69
2022/10/04 15:56:11;;;;;;;10.10;4.65;;;;;;;;;;5040082;28;20213;-69
2022/10/04 15:58:52;;;;;;;11.13;4.30;;;;;;;;;;5037749;28;20188;-70
2022/10/04 16:01:53;;;;;;;8.25;4.35;;;;;;;;;;5034437;28;20625;-69
2022/10/04 16:04:53;;;;;;;7.55;4.10;;;;;;;;;;5032232;28;20174;-68
2022/10/04 16:07:51;;;;;;;8.60;4.30;;;;;;;;;;5039898;28;20268;-67
2022/10/04 16:10:37;;;;;;;9.23;4.00;;;;;;;;;;5030874;28;20182;-68